sensor_id;sensor_type;location;lat;lon;timestamp;P1;durP1;ratioP1;P2;durP2;ratioP2
62582;SDS011;48641;51.676;5.808;2023-08-21T00:02:19;2.15;;;0.98;;
62582;SDS011;48641;51.676;5.808;2023-08-21T00:04:45;2.53;;;0.90;;
62582;SDS011;48641;51.676;5.808;2023-08-21T00:07:11;1.80;;;0.90;;
62582;SDS011;48641;51.676;5.808;2023-08-21T00:09:36;3.20;;;0.90;;
62582;SDS011;48641;51.676;5.808;2023-08-21T00:12:02;3.10;;;0.82;;
62582;SDS011;48641;51.676;5.808;2023-08-21T00:14:29;2.15;;;0.80;;
62582;SDS011;48641;51.676;5.808;2023-08-21T00:16:54;1.88;;;0.90;;
62582;SDS011;48641;51.676;5.808;2023-08-21T00:19:20;2.03;;;0.88;;
62582;SDS011;48641;51.676;5.808;2023-08-21T00:21:45;3.97;;;0.82;;
62582;SDS011;48641;51.676;5.808;2023-08-21T00:24:11;1.77;;;0.80;;
62582;SDS011;48641;51.676;5.808;2023-08-21T00:26:37;2.45;;;0.80;;
62582;SDS011;48641;51.676;5.808;2023-08-21T00:29:02;2.70;;;0.80;;
62582;SDS011;48641;51.676;5.808;2023-08-21T00:31:28;1.52;;;0.90;;
62582;SDS011;48641;51.676;5.808;2023-08-21T00:33:54;2.28;;;0.80;;
62582;SDS011;48641;51.676;5.808;2023-08-21T00:36:19;2.58;;;0.82;;
62582;SDS011;48641;51.676;5.808;2023-08-21T00:38:45;2.88;;;0.90;;
62582;SDS011;48641;51.676;5.808;2023-08-21T00:41:11;1.10;;;0.80;;
62582;SDS011;48641;51.676;5.808;2023-08-21T00:43:37;2.70;;;0.82;;
62582;SDS011;48641;51.676;5.808;2023-08-21T00:46:02;2.35;;;0.82;;
62582;SDS011;48641;51.676;5.808;2023-08-21T00:48:28;1.52;;;0.77;;
62582;SDS011;48641;51.676;5.808;2023-08-21T00:50:54;2.75;;;0.88;;
62582;SDS011;48641;51.676;5.808;2023-08-21T00:53:20;2.45;;;0.90;;
62582;SDS011;48641;51.676;5.808;2023-08-21T00:55:46;2.20;;;0.93;;
62582;SDS011;48641;51.676;5.808;2023-08-21T00:58:12;2.25;;;0.82;;
62582;SDS011;48641;51.676;5.808;2023-08-21T01:00:38;2.63;;;0.90;;
62582;SDS011;48641;51.676;5.808;2023-08-21T01:03:05;1.63;;;0.80;;
62582;SDS011;48641;51.676;5.808;2023-08-21T01:05:31;3.55;;;1.00;;
62582;SDS011;48641;51.676;5.808;2023-08-21T01:08:04;2.38;;;1.00;;
62582;SDS011;48641;51.676;5.808;2023-08-21T01:15:45;2.33;;;0.90;;
62582;SDS011;48641;51.676;5.808;2023-08-21T01:18:12;2.22;;;0.70;;
62582;SDS011;48641;51.676;5.808;2023-08-21T01:20:39;3.28;;;0.90;;
62582;SDS011;48641;51.676;5.808;2023-08-21T01:23:06;1.60;;;0.80;;
62582;SDS011;48641;51.676;5.808;2023-08-21T01:25:32;1.88;;;0.70;;
62582;SDS011;48641;51.676;5.808;2023-08-21T01:27:58;2.78;;;0.98;;
62582;SDS011;48641;51.676;5.808;2023-08-21T01:30:23;2.53;;;1.08;;
62582;SDS011;48641;51.676;5.808;2023-08-21T01:35:30;2.85;;;0.77;;
62582;SDS011;48641;51.676;5.808;2023-08-21T01:37:58;3.20;;;0.85;;
62582;SDS011;48641;51.676;5.808;2023-08-21T01:40:24;2.05;;;0.90;;
62582;SDS011;48641;51.676;5.808;2023-08-21T01:42:50;7.15;;;1.10;;
62582;SDS011;48641;51.676;5.808;2023-08-21T01:45:17;1.60;;;0.70;;
62582;SDS011;48641;51.676;5.808;2023-08-21T01:47:43;1.20;;;0.82;;
62582;SDS011;48641;51.676;5.808;2023-08-21T01:50:08;2.58;;;0.75;;
62582;SDS011;48641;51.676;5.808;2023-08-21T01:52:34;1.65;;;0.80;;
62582;SDS011;48641;51.676;5.808;2023-08-21T01:55:00;1.25;;;0.80;;
62582;SDS011;48641;51.676;5.808;2023-08-21T01:57:25;1.73;;;0.90;;
62582;SDS011;48641;51.676;5.808;2023-08-21T01:59:51;2.08;;;0.90;;
62582;SDS011;48641;51.676;5.808;2023-08-21T02:02:17;1.50;;;0.90;;
62582;SDS011;48641;51.676;5.808;2023-08-21T02:04:42;1.75;;;0.80;;
62582;SDS011;48641;51.676;5.808;2023-08-21T02:07:08;2.10;;;0.80;;
62582;SDS011;48641;51.676;5.808;2023-08-21T02:09:33;2.33;;;0.80;;
62582;SDS011;48641;51.676;5.808;2023-08-21T02:11:59;1.98;;;0.80;;
62582;SDS011;48641;51.676;5.808;2023-08-21T02:14:25;1.95;;;0.80;;
62582;SDS011;48641;51.676;5.808;2023-08-21T02:16:50;2.35;;;0.90;;
62582;SDS011;48641;51.676;5.808;2023-08-21T02:19:16;2.63;;;0.82;;
62582;SDS011;48641;51.676;5.808;2023-08-21T02:21:41;3.25;;;0.80;;
62582;SDS011;48641;51.676;5.808;2023-08-21T02:24:07;1.80;;;0.85;;
62582;SDS011;48641;51.676;5.808;2023-08-21T02:26:33;2.75;;;0.98;;
62582;SDS011;48641;51.676;5.808;2023-08-21T02:28:58;1.80;;;0.63;;
62582;SDS011;48641;51.676;5.808;2023-08-21T02:31:24;1.33;;;0.70;;
62582;SDS011;48641;51.676;5.808;2023-08-21T02:33:50;2.47;;;0.90;;
62582;SDS011;48641;51.676;5.808;2023-08-21T02:36:16;1.48;;;0.68;;
62582;SDS011;48641;51.676;5.808;2023-08-21T02:38:41;2.22;;;0.80;;
62582;SDS011;48641;51.676;5.808;2023-08-21T02:41:07;2.00;;;0.90;;
62582;SDS011;48641;51.676;5.808;2023-08-21T02:43:33;2.83;;;0.98;;
62582;SDS011;48641;51.676;5.808;2023-08-21T02:45:59;1.70;;;0.80;;
62582;SDS011;48641;51.676;5.808;2023-08-21T02:48:24;2.45;;;0.85;;
62582;SDS011;48641;51.676;5.808;2023-08-21T02:50:50;1.20;;;0.70;;
62582;SDS011;48641;51.676;5.808;2023-08-21T02:53:16;1.80;;;0.80;;
62582;SDS011;48641;51.676;5.808;2023-08-21T02:55:41;2.00;;;0.80;;
62582;SDS011;48641;51.676;5.808;2023-08-21T02:58:07;1.85;;;0.68;;
62582;SDS011;48641;51.676;5.808;2023-08-21T03:00:35;2.58;;;0.80;;
62582;SDS011;48641;51.676;5.808;2023-08-21T03:03:00;2.40;;;0.82;;
62582;SDS011;48641;51.676;5.808;2023-08-21T03:05:26;1.67;;;0.70;;
62582;SDS011;48641;51.676;5.808;2023-08-21T03:07:52;2.17;;;0.90;;
62582;SDS011;48641;51.676;5.808;2023-08-21T03:10:17;3.20;;;0.98;;
62582;SDS011;48641;51.676;5.808;2023-08-21T03:12:43;2.70;;;0.90;;
62582;SDS011;48641;51.676;5.808;2023-08-21T03:15:09;1.95;;;1.08;;
62582;SDS011;48641;51.676;5.808;2023-08-21T03:17:35;2.25;;;0.90;;
62582;SDS011;48641;51.676;5.808;2023-08-21T03:20:00;2.75;;;1.00;;
62582;SDS011;48641;51.676;5.808;2023-08-21T03:24:56;2.67;;;1.05;;
62582;SDS011;48641;51.676;5.808;2023-08-21T03:27:22;2.15;;;0.93;;
62582;SDS011;48641;51.676;5.808;2023-08-21T03:29:48;1.92;;;0.88;;
62582;SDS011;48641;51.676;5.808;2023-08-21T03:32:17;1.38;;;0.73;;
62582;SDS011;48641;51.676;5.808;2023-08-21T03:34:43;2.20;;;1.20;;
62582;SDS011;48641;51.676;5.808;2023-08-21T03:37:09;2.05;;;0.90;;
62582;SDS011;48641;51.676;5.808;2023-08-21T03:39:35;1.77;;;0.70;;
62582;SDS011;48641;51.676;5.808;2023-08-21T03:42:01;2.25;;;0.70;;
62582;SDS011;48641;51.676;5.808;2023-08-21T03:44:26;2.92;;;0.93;;
62582;SDS011;48641;51.676;5.808;2023-08-21T03:46:52;1.35;;;0.80;;
62582;SDS011;48641;51.676;5.808;2023-08-21T03:49:18;2.33;;;0.90;;
62582;SDS011;48641;51.676;5.808;2023-08-21T03:51:43;2.05;;;1.00;;
62582;SDS011;48641;51.676;5.808;2023-08-21T03:54:09;1.73;;;0.88;;
62582;SDS011;48641;51.676;5.808;2023-08-21T03:56:36;1.33;;;0.70;;
62582;SDS011;48641;51.676;5.808;2023-08-21T03:59:01;2.53;;;0.85;;
62582;SDS011;48641;51.676;5.808;2023-08-21T04:01:27;1.15;;;0.70;;
62582;SDS011;48641;51.676;5.808;2023-08-21T04:03:53;1.60;;;0.80;;
62582;SDS011;48641;51.676;5.808;2023-08-21T04:06:18;2.13;;;0.80;;
62582;SDS011;48641;51.676;5.808;2023-08-21T04:08:44;1.77;;;0.73;;
62582;SDS011;48641;51.676;5.808;2023-08-21T04:11:10;1.83;;;0.82;;
62582;SDS011;48641;51.676;5.808;2023-08-21T04:13:35;2.75;;;0.80;;
62582;SDS011;48641;51.676;5.808;2023-08-21T04:16:01;1.83;;;0.80;;
62582;SDS011;48641;51.676;5.808;2023-08-21T04:18:26;1.67;;;0.73;;
62582;SDS011;48641;51.676;5.808;2023-08-21T04:20:52;1.77;;;0.80;;
62582;SDS011;48641;51.676;5.808;2023-08-21T04:23:18;2.78;;;0.80;;
62582;SDS011;48641;51.676;5.808;2023-08-21T04:25:43;1.80;;;0.85;;
62582;SDS011;48641;51.676;5.808;2023-08-21T04:28:09;2.33;;;0.88;;
62582;SDS011;48641;51.676;5.808;2023-08-21T04:30:35;2.05;;;0.73;;
62582;SDS011;48641;51.676;5.808;2023-08-21T04:33:00;1.42;;;0.70;;
62582;SDS011;48641;51.676;5.808;2023-08-21T04:35:26;2.47;;;0.85;;
62582;SDS011;48641;51.676;5.808;2023-08-21T04:37:52;1.08;;;0.70;;
62582;SDS011;48641;51.676;5.808;2023-08-21T04:40:17;1.73;;;0.80;;
62582;SDS011;48641;51.676;5.808;2023-08-21T04:42:45;2.95;;;0.95;;
62582;SDS011;48641;51.676;5.808;2023-08-21T04:45:11;1.67;;;0.88;;
62582;SDS011;48641;51.676;5.808;2023-08-21T04:47:37;1.73;;;0.80;;
62582;SDS011;48641;51.676;5.808;2023-08-21T04:50:02;2.22;;;0.90;;
62582;SDS011;48641;51.676;5.808;2023-08-21T04:52:29;2.15;;;0.88;;
62582;SDS011;48641;51.676;5.808;2023-08-21T04:54:54;2.53;;;0.80;;
62582;SDS011;48641;51.676;5.808;2023-08-21T04:57:20;1.83;;;0.80;;
62582;SDS011;48641;51.676;5.808;2023-08-21T04:59:46;1.30;;;0.80;;
62582;SDS011;48641;51.676;5.808;2023-08-21T05:02:12;2.65;;;1.00;;
62582;SDS011;48641;51.676;5.808;2023-08-21T05:04:38;3.17;;;0.90;;
62582;SDS011;48641;51.676;5.808;2023-08-21T05:07:04;2.45;;;0.90;;
62582;SDS011;48641;51.676;5.808;2023-08-21T05:09:30;1.75;;;0.70;;
62582;SDS011;48641;51.676;5.808;2023-08-21T05:11:58;1.10;;;0.63;;
62582;SDS011;48641;51.676;5.808;2023-08-21T05:14:24;1.75;;;0.80;;
62582;SDS011;48641;51.676;5.808;2023-08-21T05:16:50;1.65;;;0.80;;
62582;SDS011;48641;51.676;5.808;2023-08-21T05:19:16;1.98;;;0.75;;
62582;SDS011;48641;51.676;5.808;2023-08-21T05:21:42;0.90;;;0.70;;
62582;SDS011;48641;51.676;5.808;2023-08-21T05:24:08;2.90;;;0.85;;
62582;SDS011;48641;51.676;5.808;2023-08-21T05:26:37;1.55;;;0.70;;
62582;SDS011;48641;51.676;5.808;2023-08-21T05:29:05;1.83;;;0.80;;
62582;SDS011;48641;51.676;5.808;2023-08-21T05:31:31;1.27;;;0.77;;
62582;SDS011;48641;51.676;5.808;2023-08-21T05:33:57;2.42;;;0.98;;
62582;SDS011;48641;51.676;5.808;2023-08-21T05:36:22;2.58;;;0.88;;
62582;SDS011;48641;51.676;5.808;2023-08-21T05:38:48;3.17;;;0.82;;
62582;SDS011;48641;51.676;5.808;2023-08-21T05:41:16;1.80;;;0.80;;
62582;SDS011;48641;51.676;5.808;2023-08-21T05:43:42;2.25;;;0.80;;
62582;SDS011;48641;51.676;5.808;2023-08-21T05:46:07;1.50;;;0.70;;
62582;SDS011;48641;51.676;5.808;2023-08-21T05:48:33;1.73;;;0.80;;
62582;SDS011;48641;51.676;5.808;2023-08-21T05:50:59;2.50;;;0.90;;
62582;SDS011;48641;51.676;5.808;2023-08-21T05:53:25;1.63;;;0.80;;
62582;SDS011;48641;51.676;5.808;2023-08-21T05:55:51;1.77;;;0.70;;
62582;SDS011;48641;51.676;5.808;2023-08-21T05:58:17;2.17;;;0.80;;
62582;SDS011;48641;51.676;5.808;2023-08-21T06:00:43;2.10;;;0.80;;
62582;SDS011;48641;51.676;5.808;2023-08-21T06:03:09;1.45;;;0.80;;
62582;SDS011;48641;51.676;5.808;2023-08-21T06:05:37;3.47;;;0.90;;
62582;SDS011;48641;51.676;5.808;2023-08-21T06:08:03;1.77;;;0.80;;
62582;SDS011;48641;51.676;5.808;2023-08-21T06:10:31;2.47;;;1.00;;
62582;SDS011;48641;51.676;5.808;2023-08-21T06:12:57;2.45;;;0.80;;
62582;SDS011;48641;51.676;5.808;2023-08-21T06:15:22;1.48;;;0.73;;
62582;SDS011;48641;51.676;5.808;2023-08-21T06:17:48;1.30;;;0.70;;
62582;SDS011;48641;51.676;5.808;2023-08-21T06:20:14;1.88;;;0.80;;
62582;SDS011;48641;51.676;5.808;2023-08-21T06:22:39;1.65;;;0.90;;
62582;SDS011;48641;51.676;5.808;2023-08-21T06:25:05;2.60;;;0.80;;
62582;SDS011;48641;51.676;5.808;2023-08-21T06:27:31;2.08;;;0.80;;
62582;SDS011;48641;51.676;5.808;2023-08-21T06:29:57;1.42;;;0.80;;
62582;SDS011;48641;51.676;5.808;2023-08-21T06:32:22;1.35;;;0.68;;
62582;SDS011;48641;51.676;5.808;2023-08-21T06:34:48;2.83;;;0.90;;
62582;SDS011;48641;51.676;5.808;2023-08-21T06:37:13;2.08;;;0.80;;
62582;SDS011;48641;51.676;5.808;2023-08-21T06:39:39;1.88;;;0.80;;
62582;SDS011;48641;51.676;5.808;2023-08-21T06:42:05;2.28;;;0.70;;
62582;SDS011;48641;51.676;5.808;2023-08-21T06:44:30;2.53;;;0.85;;
62582;SDS011;48641;51.676;5.808;2023-08-21T06:46:56;2.08;;;0.90;;
62582;SDS011;48641;51.676;5.808;2023-08-21T06:49:22;3.30;;;1.00;;
62582;SDS011;48641;51.676;5.808;2023-08-21T06:51:48;1.55;;;0.70;;
62582;SDS011;48641;51.676;5.808;2023-08-21T06:54:14;0.80;;;0.65;;
62582;SDS011;48641;51.676;5.808;2023-08-21T06:56:40;1.95;;;0.75;;
62582;SDS011;48641;51.676;5.808;2023-08-21T06:59:06;2.00;;;0.90;;
62582;SDS011;48641;51.676;5.808;2023-08-21T07:01:32;2.53;;;0.80;;
62582;SDS011;48641;51.676;5.808;2023-08-21T07:03:58;3.17;;;0.93;;
62582;SDS011;48641;51.676;5.808;2023-08-21T07:06:23;2.53;;;0.80;;
62582;SDS011;48641;51.676;5.808;2023-08-21T07:08:49;1.50;;;0.80;;
62582;SDS011;48641;51.676;5.808;2023-08-21T07:11:15;2.33;;;1.38;;
62582;SDS011;48641;51.676;5.808;2023-08-21T07:13:44;2.03;;;0.80;;
62582;SDS011;48641;51.676;5.808;2023-08-21T10:59:57;2.05;;;0.80;;
62582;SDS011;48641;51.676;5.808;2023-08-21T11:02:47;1.90;;;0.80;;
62582;SDS011;48641;51.676;5.808;2023-08-21T11:05:14;1.97;;;0.83;;
62582;SDS011;48641;51.676;5.808;2023-08-21T11:07:44;2.00;;;0.90;;
62582;SDS011;48641;51.676;5.808;2023-08-21T11:10:12;1.98;;;0.80;;
62582;SDS011;48641;51.676;5.808;2023-08-21T11:12:55;3.13;;;1.00;;
62582;SDS011;48641;51.676;5.808;2023-08-21T11:15:23;2.47;;;0.80;;
62582;SDS011;48641;51.676;5.808;2023-08-21T11:17:57;1.33;;;0.73;;
62582;SDS011;48641;51.676;5.808;2023-08-21T11:20:28;2.72;;;0.65;;
62582;SDS011;48641;51.676;5.808;2023-08-21T11:23:07;2.30;;;0.90;;
62582;SDS011;48641;51.676;5.808;2023-08-21T11:25:33;1.40;;;0.80;;
62582;SDS011;48641;51.676;5.808;2023-08-21T11:28:00;1.90;;;0.80;;
62582;SDS011;48641;51.676;5.808;2023-08-21T11:30:27;1.70;;;0.70;;
62582;SDS011;48641;51.676;5.808;2023-08-21T11:35:37;1.98;;;0.82;;
62582;SDS011;48641;51.676;5.808;2023-08-21T11:38:04;2.80;;;1.10;;
62582;SDS011;48641;51.676;5.808;2023-08-21T11:40:30;2.65;;;0.93;;
62582;SDS011;48641;51.676;5.808;2023-08-21T11:43:02;1.80;;;0.70;;
62582;SDS011;48641;51.676;5.808;2023-08-21T11:45:28;3.15;;;0.90;;
62582;SDS011;48641;51.676;5.808;2023-08-21T11:47:57;3.20;;;0.85;;
62582;SDS011;48641;51.676;5.808;2023-08-21T11:50:23;2.38;;;0.90;;
62582;SDS011;48641;51.676;5.808;2023-08-21T11:52:53;3.15;;;0.80;;
62582;SDS011;48641;51.676;5.808;2023-08-21T11:55:20;2.33;;;0.80;;
62582;SDS011;48641;51.676;5.808;2023-08-21T11:57:50;2.17;;;0.80;;
62582;SDS011;48641;51.676;5.808;2023-08-21T12:00:18;2.42;;;1.00;;
62582;SDS011;48641;51.676;5.808;2023-08-21T12:02:57;3.20;;;0.93;;
62582;SDS011;48641;51.676;5.808;2023-08-21T12:05:25;1.73;;;0.80;;
62582;SDS011;48641;51.676;5.808;2023-08-21T12:07:52;1.88;;;1.00;;
62582;SDS011;48641;51.676;5.808;2023-08-21T12:10:28;2.88;;;0.70;;
62582;SDS011;48641;51.676;5.808;2023-08-21T12:12:54;2.65;;;0.85;;
62582;SDS011;48641;51.676;5.808;2023-08-21T12:15:21;3.60;;;0.98;;
62582;SDS011;48641;51.676;5.808;2023-08-21T12:17:47;2.35;;;0.82;;
62582;SDS011;48641;51.676;5.808;2023-08-21T12:20:13;2.10;;;0.90;;
62582;SDS011;48641;51.676;5.808;2023-08-21T12:22:39;1.55;;;0.80;;
62582;SDS011;48641;51.676;5.808;2023-08-21T12:25:06;3.72;;;0.85;;
62582;SDS011;48641;51.676;5.808;2023-08-21T12:27:32;1.48;;;0.80;;
62582;SDS011;48641;51.676;5.808;2023-08-21T12:29:58;3.50;;;1.00;;
62582;SDS011;48641;51.676;5.808;2023-08-21T12:32:23;2.92;;;0.90;;
62582;SDS011;48641;51.676;5.808;2023-08-21T12:34:49;3.83;;;0.90;;
62582;SDS011;48641;51.676;5.808;2023-08-21T12:37:15;3.80;;;0.90;;
62582;SDS011;48641;51.676;5.808;2023-08-21T12:39:40;2.13;;;0.80;;
62582;SDS011;48641;51.676;5.808;2023-08-21T12:42:06;3.45;;;0.80;;
62582;SDS011;48641;51.676;5.808;2023-08-21T12:44:33;2.78;;;0.90;;
62582;SDS011;48641;51.676;5.808;2023-08-21T12:46:59;2.95;;;1.27;;
62582;SDS011;48641;51.676;5.808;2023-08-21T12:49:24;2.78;;;0.98;;
62582;SDS011;48641;51.676;5.808;2023-08-21T12:51:50;3.28;;;1.00;;
62582;SDS011;48641;51.676;5.808;2023-08-21T12:54:16;3.08;;;1.00;;
62582;SDS011;48641;51.676;5.808;2023-08-21T12:56:42;3.67;;;0.90;;
62582;SDS011;48641;51.676;5.808;2023-08-21T12:59:08;2.05;;;0.73;;
62582;SDS011;48641;51.676;5.808;2023-08-21T13:01:34;1.67;;;0.80;;
62582;SDS011;48641;51.676;5.808;2023-08-21T13:04:00;2.63;;;0.80;;
62582;SDS011;48641;51.676;5.808;2023-08-21T13:06:26;2.13;;;0.80;;
62582;SDS011;48641;51.676;5.808;2023-08-21T13:08:52;2.28;;;1.20;;
62582;SDS011;48641;51.676;5.808;2023-08-21T13:11:19;2.03;;;0.70;;
62582;SDS011;48641;51.676;5.808;2023-08-21T13:13:45;2.45;;;1.10;;
62582;SDS011;48641;51.676;5.808;2023-08-21T13:16:10;2.08;;;0.93;;
62582;SDS011;48641;51.676;5.808;2023-08-21T13:18:36;3.05;;;0.95;;
62582;SDS011;48641;51.676;5.808;2023-08-21T13:21:02;2.95;;;1.00;;
62582;SDS011;48641;51.676;5.808;2023-08-21T13:23:28;1.17;;;0.80;;
62582;SDS011;48641;51.676;5.808;2023-08-21T13:25:55;3.08;;;1.00;;
62582;SDS011;48641;51.676;5.808;2023-08-21T13:28:22;1.67;;;0.80;;
62582;SDS011;48641;51.676;5.808;2023-08-21T13:30:48;1.40;;;0.90;;
62582;SDS011;48641;51.676;5.808;2023-08-21T13:33:14;2.72;;;1.00;;
62582;SDS011;48641;51.676;5.808;2023-08-21T13:35:42;2.55;;;0.90;;
62582;SDS011;48641;51.676;5.808;2023-08-21T13:38:09;3.20;;;1.00;;
62582;SDS011;48641;51.676;5.808;2023-08-21T13:40:35;1.98;;;0.80;;
62582;SDS011;48641;51.676;5.808;2023-08-21T13:43:00;2.20;;;0.90;;
62582;SDS011;48641;51.676;5.808;2023-08-21T13:45:26;2.05;;;0.90;;
62582;SDS011;48641;51.676;5.808;2023-08-21T13:47:52;2.05;;;0.73;;
62582;SDS011;48641;51.676;5.808;2023-08-21T13:50:18;1.52;;;0.80;;
62582;SDS011;48641;51.676;5.808;2023-08-21T13:52:45;1.83;;;0.90;;
62582;SDS011;48641;51.676;5.808;2023-08-21T13:55:12;2.20;;;0.90;;
62582;SDS011;48641;51.676;5.808;2023-08-21T13:57:38;2.95;;;1.00;;
62582;SDS011;48641;51.676;5.808;2023-08-21T14:00:04;1.95;;;0.80;;
62582;SDS011;48641;51.676;5.808;2023-08-21T14:02:36;4.07;;;1.00;;
62582;SDS011;48641;51.676;5.808;2023-08-21T14:05:02;4.43;;;1.10;;
62582;SDS011;48641;51.676;5.808;2023-08-21T14:07:31;4.82;;;1.02;;
62582;SDS011;48641;51.676;5.808;2023-08-21T14:09:57;2.63;;;1.00;;
62582;SDS011;48641;51.676;5.808;2023-08-21T14:12:23;5.57;;;1.30;;
62582;SDS011;48641;51.676;5.808;2023-08-21T14:14:49;4.88;;;1.00;;
62582;SDS011;48641;51.676;5.808;2023-08-21T14:17:15;4.43;;;1.10;;
62582;SDS011;48641;51.676;5.808;2023-08-21T14:19:41;2.50;;;1.15;;
62582;SDS011;48641;51.676;5.808;2023-08-21T14:22:07;2.05;;;0.90;;
62582;SDS011;48641;51.676;5.808;2023-08-21T14:24:32;3.58;;;1.10;;
62582;SDS011;48641;51.676;5.808;2023-08-21T14:26:58;2.05;;;0.93;;
62582;SDS011;48641;51.676;5.808;2023-08-21T14:29:24;2.58;;;0.93;;
62582;SDS011;48641;51.676;5.808;2023-08-21T14:31:50;3.05;;;1.02;;
62582;SDS011;48641;51.676;5.808;2023-08-21T14:34:18;2.78;;;1.10;;
62582;SDS011;48641;51.676;5.808;2023-08-21T14:36:45;1.48;;;0.88;;
62582;SDS011;48641;51.676;5.808;2023-08-21T14:39:12;2.22;;;0.90;;
62582;SDS011;48641;51.676;5.808;2023-08-21T14:41:38;4.25;;;1.40;;
62582;SDS011;48641;51.676;5.808;2023-08-21T14:44:06;2.55;;;1.20;;
62582;SDS011;48641;51.676;5.808;2023-08-21T14:46:31;5.05;;;1.23;;
62582;SDS011;48641;51.676;5.808;2023-08-21T14:48:58;5.53;;;1.20;;
62582;SDS011;48641;51.676;5.808;2023-08-21T14:51:24;5.90;;;1.50;;
62582;SDS011;48641;51.676;5.808;2023-08-21T14:53:49;5.68;;;1.45;;
62582;SDS011;48641;51.676;5.808;2023-08-21T14:56:15;6.68;;;1.58;;
62582;SDS011;48641;51.676;5.808;2023-08-21T14:58:41;6.53;;;1.30;;
62582;SDS011;48641;51.676;5.808;2023-08-21T15:01:08;6.05;;;1.35;;
62582;SDS011;48641;51.676;5.808;2023-08-21T15:03:38;4.45;;;1.27;;
62582;SDS011;48641;51.676;5.808;2023-08-21T15:06:07;5.60;;;1.30;;
62582;SDS011;48641;51.676;5.808;2023-08-21T15:08:32;6.15;;;1.30;;
62582;SDS011;48641;51.676;5.808;2023-08-21T15:10:58;5.95;;;1.40;;
62582;SDS011;48641;51.676;5.808;2023-08-21T15:13:24;5.38;;;1.35;;
62582;SDS011;48641;51.676;5.808;2023-08-21T15:15:50;4.78;;;1.35;;
62582;SDS011;48641;51.676;5.808;2023-08-21T15:18:15;5.57;;;1.30;;
62582;SDS011;48641;51.676;5.808;2023-08-21T15:20:41;8.55;;;2.40;;
62582;SDS011;48641;51.676;5.808;2023-08-21T15:23:06;9.77;;;3.00;;
62582;SDS011;48641;51.676;5.808;2023-08-21T15:25:32;9.25;;;2.97;;
62582;SDS011;48641;51.676;5.808;2023-08-21T15:27:57;10.63;;;2.97;;
62582;SDS011;48641;51.676;5.808;2023-08-21T15:30:23;12.30;;;3.05;;
62582;SDS011;48641;51.676;5.808;2023-08-21T15:32:49;10.55;;;2.35;;
62582;SDS011;48641;51.676;5.808;2023-08-21T15:35:15;7.68;;;2.50;;
62582;SDS011;48641;51.676;5.808;2023-08-21T15:37:40;8.90;;;3.15;;
62582;SDS011;48641;51.676;5.808;2023-08-21T15:40:06;10.48;;;3.47;;
62582;SDS011;48641;51.676;5.808;2023-08-21T15:42:32;8.85;;;2.88;;
62582;SDS011;48641;51.676;5.808;2023-08-21T15:44:58;8.02;;;2.42;;
62582;SDS011;48641;51.676;5.808;2023-08-21T15:47:24;8.00;;;2.42;;
62582;SDS011;48641;51.676;5.808;2023-08-21T15:49:49;7.68;;;2.33;;
62582;SDS011;48641;51.676;5.808;2023-08-21T15:52:15;9.73;;;2.42;;
62582;SDS011;48641;51.676;5.808;2023-08-21T15:54:41;9.40;;;2.75;;
62582;SDS011;48641;51.676;5.808;2023-08-21T15:57:06;9.63;;;2.95;;
62582;SDS011;48641;51.676;5.808;2023-08-21T15:59:32;10.35;;;2.90;;
62582;SDS011;48641;51.676;5.808;2023-08-21T16:01:58;8.82;;;2.35;;
62582;SDS011;48641;51.676;5.808;2023-08-21T16:04:24;9.93;;;2.60;;
62582;SDS011;48641;51.676;5.808;2023-08-21T16:06:50;8.10;;;3.03;;
62582;SDS011;48641;51.676;5.808;2023-08-21T16:09:16;7.03;;;2.45;;
62582;SDS011;48641;51.676;5.808;2023-08-21T16:11:45;8.23;;;2.90;;
62582;SDS011;48641;51.676;5.808;2023-08-21T16:14:10;6.57;;;2.42;;
62582;SDS011;48641;51.676;5.808;2023-08-21T16:16:38;6.80;;;2.10;;
62582;SDS011;48641;51.676;5.808;2023-08-21T16:19:04;7.40;;;2.40;;
62582;SDS011;48641;51.676;5.808;2023-08-21T16:21:29;7.00;;;2.28;;
62582;SDS011;48641;51.676;5.808;2023-08-21T16:23:55;8.52;;;2.35;;
62582;SDS011;48641;51.676;5.808;2023-08-21T16:26:21;9.90;;;2.55;;
62582;SDS011;48641;51.676;5.808;2023-08-21T16:28:46;7.90;;;1.98;;
62582;SDS011;48641;51.676;5.808;2023-08-21T16:31:15;5.78;;;1.98;;
62582;SDS011;48641;51.676;5.808;2023-08-21T16:33:42;8.15;;;2.10;;
62582;SDS011;48641;51.676;5.808;2023-08-21T16:36:08;7.57;;;1.92;;
62582;SDS011;48641;51.676;5.808;2023-08-21T16:38:34;5.43;;;2.13;;
62582;SDS011;48641;51.676;5.808;2023-08-21T16:40:59;6.35;;;2.28;;
62582;SDS011;48641;51.676;5.808;2023-08-21T16:43:26;6.32;;;1.92;;
62582;SDS011;48641;51.676;5.808;2023-08-21T16:45:51;7.40;;;2.10;;
62582;SDS011;48641;51.676;5.808;2023-08-21T16:48:17;7.45;;;2.20;;
62582;SDS011;48641;51.676;5.808;2023-08-21T16:50:44;4.43;;;1.88;;
62582;SDS011;48641;51.676;5.808;2023-08-21T16:53:10;6.07;;;1.80;;
62582;SDS011;48641;51.676;5.808;2023-08-21T16:55:35;7.30;;;2.50;;
62582;SDS011;48641;51.676;5.808;2023-08-21T16:58:01;7.40;;;2.20;;
62582;SDS011;48641;51.676;5.808;2023-08-21T17:00:27;8.52;;;2.53;;
62582;SDS011;48641;51.676;5.808;2023-08-21T17:02:53;8.55;;;2.50;;
62582;SDS011;48641;51.676;5.808;2023-08-21T17:05:20;10.07;;;2.83;;
62582;SDS011;48641;51.676;5.808;2023-08-21T17:07:46;8.10;;;2.15;;
62582;SDS011;48641;51.676;5.808;2023-08-21T17:10:11;12.23;;;2.72;;
62582;SDS011;48641;51.676;5.808;2023-08-21T17:12:38;9.07;;;2.50;;
62582;SDS011;48641;51.676;5.808;2023-08-21T17:15:04;8.30;;;2.63;;
62582;SDS011;48641;51.676;5.808;2023-08-21T17:17:30;9.90;;;2.80;;
62582;SDS011;48641;51.676;5.808;2023-08-21T17:19:56;9.68;;;2.40;;
62582;SDS011;48641;51.676;5.808;2023-08-21T17:22:23;10.50;;;2.25;;
62582;SDS011;48641;51.676;5.808;2023-08-21T17:24:49;9.43;;;2.25;;
62582;SDS011;48641;51.676;5.808;2023-08-21T17:27:16;8.98;;;2.17;;
62582;SDS011;48641;51.676;5.808;2023-08-21T17:29:41;9.35;;;2.05;;
62582;SDS011;48641;51.676;5.808;2023-08-21T17:32:11;9.00;;;2.17;;
62582;SDS011;48641;51.676;5.808;2023-08-21T17:34:40;11.45;;;2.53;;
62582;SDS011;48641;51.676;5.808;2023-08-21T17:37:06;8.90;;;2.40;;
62582;SDS011;48641;51.676;5.808;2023-08-21T17:39:32;7.70;;;2.20;;
62582;SDS011;48641;51.676;5.808;2023-08-21T17:41:58;9.27;;;2.20;;
62582;SDS011;48641;51.676;5.808;2023-08-21T17:44:24;6.20;;;2.13;;
62582;SDS011;48641;51.676;5.808;2023-08-21T17:46:50;9.32;;;2.53;;
62582;SDS011;48641;51.676;5.808;2023-08-21T17:49:15;7.93;;;2.10;;
62582;SDS011;48641;51.676;5.808;2023-08-21T17:51:41;9.05;;;2.28;;
62582;SDS011;48641;51.676;5.808;2023-08-21T17:54:07;6.45;;;2.05;;
62582;SDS011;48641;51.676;5.808;2023-08-21T17:56:33;6.32;;;2.13;;
62582;SDS011;48641;51.676;5.808;2023-08-21T18:01:28;7.57;;;2.17;;
62582;SDS011;48641;51.676;5.808;2023-08-21T18:03:54;6.85;;;1.80;;
62582;SDS011;48641;51.676;5.808;2023-08-21T18:06:19;5.75;;;1.77;;
62582;SDS011;48641;51.676;5.808;2023-08-21T18:08:47;4.78;;;1.90;;
62582;SDS011;48641;51.676;5.808;2023-08-21T18:11:13;5.80;;;1.83;;
62582;SDS011;48641;51.676;5.808;2023-08-21T18:13:38;6.82;;;2.10;;
62582;SDS011;48641;51.676;5.808;2023-08-21T18:16:04;6.32;;;1.85;;
62582;SDS011;48641;51.676;5.808;2023-08-21T18:18:30;7.70;;;2.03;;
62582;SDS011;48641;51.676;5.808;2023-08-21T18:20:56;7.10;;;2.20;;
62582;SDS011;48641;51.676;5.808;2023-08-21T18:23:23;5.55;;;1.85;;
62582;SDS011;48641;51.676;5.808;2023-08-21T18:25:50;4.85;;;1.80;;
62582;SDS011;48641;51.676;5.808;2023-08-21T18:28:16;6.75;;;1.63;;
62582;SDS011;48641;51.676;5.808;2023-08-21T18:30:47;5.00;;;1.75;;
62582;SDS011;48641;51.676;5.808;2023-08-21T18:33:15;6.00;;;1.77;;
62582;SDS011;48641;51.676;5.808;2023-08-21T18:35:41;5.07;;;1.60;;
62582;SDS011;48641;51.676;5.808;2023-08-21T18:38:07;5.80;;;1.58;;
62582;SDS011;48641;51.676;5.808;2023-08-21T18:40:32;4.57;;;2.00;;
62582;SDS011;48641;51.676;5.808;2023-08-21T18:42:59;5.95;;;1.95;;